Time;durP1;ratioP1;P1;durP2;ratioP2;P2;SDS_P1;SDS_P2;PMS_P1;PMS_P2;Temp;Humidity;BMP_temperature;BMP_pressure;BME280_temperature;BME280_humidity;BME280_pressure;Samples;Min_cycle;Max_cycle;Signal;HPM_P1;HPM_P2
2022/11/28 00:02:07;;;;;;;28.20;14.57;;;;;;;5.38;100.00;101322.19;5029372;28;20029;-76
2022/11/28 00:04:33;;;;;;;25.98;14.27;;;;;;;5.41;100.00;101331.81;5046738;28;20016;-78
2022/11/28 00:06:58;;;;;;;29.08;13.80;;;;;;;5.41;100.00;101329.13;5072474;28;20040;-78
2022/11/28 00:09:24;;;;;;;28.60;14.20;;;;;;;5.28;100.00;101315.78;5038394;28;20226;-78
2022/11/28 00:11:49;;;;;;;31.73;14.57;;;;;;;5.41;100.00;101319.28;5034459;28;20034;-78
2022/11/28 00:14:17;;;;;;;28.33;13.52;;;;;;;5.36;100.00;101315.22;5016553;28;20116;-76
2022/11/28 00:16:42;;;;;;;29.15;15.23;;;;;;;5.49;100.00;101299.91;5017647;28;20075;-78
2022/11/28 00:19:09;;;;;;;32.72;14.43;;;;;;;5.35;100.00;101308.16;5016583;28;20437;-78
2022/11/28 00:21:35;;;;;;;33.13;13.30;;;;;;;5.32;100.00;101302.97;5017642;28;20125;-77
2022/11/28 00:24:01;;;;;;;23.13;13.23;;;;;;;5.32;100.00;101303.84;5019454;28;20021;-79
2022/11/28 00:26:30;;;;;;;25.95;12.75;;;;;;;5.38;100.00;101313.28;5017135;28;20025;-79
2022/11/28 00:28:56;;;;;;;23.65;11.75;;;;;;;5.46;100.00;101305.50;5020290;28;20080;-75
2022/11/28 00:31:25;;;;;;;38.25;14.23;;;;;;;5.49;100.00;101293.69;5018473;28;20029;-75
2022/11/28 00:33:51;;;;;;;32.10;13.07;;;;;;;5.63;100.00;101301.56;5037816;28;20029;-77
2022/11/28 00:36:17;;;;;;;26.25;13.20;;;;;;;5.45;100.00;101298.41;5026241;28;20037;-76
2022/11/28 00:38:43;;;;;;;26.48;12.38;;;;;;;5.45;100.00;101293.03;5044836;28;20021;-77
2022/11/28 00:41:12;;;;;;;27.35;13.48;;;;;;;5.44;100.00;101292.19;5029718;28;20052;-75
2022/11/28 00:43:39;;;;;;;29.58;12.38;;;;;;;5.47;100.00;101280.34;5026321;28;20033;-77
2022/11/28 00:46:06;;;;;;;29.90;12.65;;;;;;;5.50;100.00;101284.66;5033080;28;20062;-77
2022/11/28 00:48:32;;;;;;;28.02;12.18;;;;;;;5.47;100.00;101285.72;5058783;28;20025;-76
2022/11/28 00:51:05;;;;;;;26.80;12.18;;;;;;;5.48;100.00;101281.19;5041005;28;20063;-77
2022/11/28 00:53:30;;;;;;;25.83;12.13;;;;;;;5.54;100.00;101270.00;5067009;28;20039;-77
2022/11/28 00:55:55;;;;;;;28.80;12.75;;;;;;;5.40;100.00;101279.09;5039409;28;20029;-78
2022/11/28 00:58:21;;;;;;;29.13;12.77;;;;;;;5.52;100.00;101272.81;5054764;28;20028;-77
2022/11/28 01:00:46;;;;;;;23.50;11.52;;;;;;;5.50;100.00;101264.00;5051080;28;20043;-76
2022/11/28 01:03:11;;;;;;;35.00;12.35;;;;;;;5.48;100.00;101255.22;5063621;28;20025;-76
2022/11/28 01:05:42;;;;;;;23.42;12.52;;;;;;;5.56;100.00;101242.06;5047667;28;20029;-77
2022/11/28 01:08:08;;;;;;;31.85;12.40;;;;;;;5.54;100.00;101240.44;5021105;28;20029;-78
2022/11/28 01:10:38;;;;;;;28.50;11.70;;;;;;;5.54;100.00;101244.03;5054181;28;20098;-76
2022/11/28 01:13:04;;;;;;;26.35;12.85;;;;;;;5.50;100.00;101242.53;5040574;28;20063;-77
2022/11/28 01:15:29;;;;;;;21.08;11.40;;;;;;;5.49;100.00;101239.97;5042071;28;20025;-77
2022/11/28 01:17:54;;;;;;;23.58;11.88;;;;;;;5.40;100.00;101236.13;5043038;28;20107;-76
2022/11/28 01:20:20;;;;;;;23.10;11.35;;;;;;;5.63;100.00;101221.81;5059715;28;20025;-78
2022/11/28 01:22:45;;;;;;;25.17;11.13;;;;;;;5.48;100.00;101231.06;5042422;28;20033;-76
2022/11/28 01:25:11;;;;;;;28.23;12.23;;;;;;;5.58;100.00;101233.88;5060052;28;20025;-76
2022/11/28 01:27:36;;;;;;;22.10;11.63;;;;;;;5.57;100.00;101238.41;5040944;28;20025;-77
2022/11/28 01:30:02;;;;;;;23.15;10.93;;;;;;;5.68;100.00;101235.75;5034567;28;20029;-78
2022/11/28 01:32:27;;;;;;;20.67;10.85;;;;;;;5.63;100.00;101232.56;5021339;28;20028;-77
2022/11/28 01:34:52;;;;;;;27.38;11.57;;;;;;;5.50;100.00;101226.41;5020462;28;20045;-78
2022/11/28 01:37:18;;;;;;;24.45;11.43;;;;;;;5.65;100.00;101214.47;5029157;28;20032;-78
2022/11/28 01:39:43;;;;;;;20.48;10.80;;;;;;;5.61;100.00;101218.41;5036196;28;20021;-76
2022/11/28 01:42:15;;;;;;;23.17;11.65;;;;;;;5.57;100.00;101206.16;5020042;28;20021;-76
2022/11/28 01:44:41;;;;;;;23.65;11.50;;;;;;;5.43;100.00;101198.31;5057729;28;20017;-76
2022/11/28 01:47:06;;;;;;;18.50;10.07;;;;;;;5.42;100.00;101196.63;5080144;28;20024;-77
2022/11/28 01:49:36;;;;;;;19.25;10.95;;;;;;;5.52;100.00;101189.53;5079674;28;20032;-76
2022/11/28 01:52:10;;;;;;;17.05;10.10;;;;;;;5.34;100.00;101182.88;5081355;28;20022;-77
2022/11/28 01:54:37;;;;;;;20.75;11.18;;;;;;;5.26;100.00;101163.84;5062695;28;20024;-78
2022/11/28 01:57:07;;;;;;;33.40;12.27;;;;;;;5.43;100.00;101166.09;5063895;28;20115;-77
2022/11/28 01:59:41;;;;;;;20.45;11.00;;;;;;;5.36;100.00;101163.03;5081724;28;20029;-74
2022/11/28 02:02:14;;;;;;;23.75;11.45;;;;;;;5.25;100.00;101151.41;5065887;28;20025;-75
2022/11/28 02:04:41;;;;;;;23.95;11.43;;;;;;;5.27;100.00;101150.28;5082762;28;20023;-76
2022/11/28 02:07:06;;;;;;;23.83;11.10;;;;;;;5.31;100.00;101145.56;5064571;28;20119;-75
2022/11/28 02:09:32;;;;;;;23.50;11.02;;;;;;;5.36;100.00;101138.88;5064250;28;20024;-75
2022/11/28 02:12:27;;;;;;;28.30;11.98;;;;;;;5.33;100.00;101132.88;5064290;28;20028;-77
2022/11/28 02:15:11;;;;;;;23.10;11.57;;;;;;;5.20;100.00;101126.72;5063699;28;20496;-76
2022/11/28 02:17:42;;;;;;;26.50;13.13;;;;;;;5.20;100.00;101121.34;5081343;28;20031;-76
2022/11/28 02:20:46;;;;;;;26.25;11.93;;;;;;;5.23;100.00;101107.72;5064543;28;20044;-77
2022/11/28 02:23:25;;;;;;;21.58;11.50;;;;;;;5.25;100.00;101109.28;4964340;28;20138;-75
2022/11/28 02:26:44;;;;;;;24.75;11.43;;;;;;;5.24;100.00;101107.59;4955277;29;20055;-76
2022/11/28 02:29:28;;;;;;;21.48;11.02;;;;;;;5.16;100.00;101097.44;4957213;28;20503;-76
2022/11/28 02:32:18;;;;;;;21.73;10.63;;;;;;;5.24;100.00;101079.91;5060988;28;20024;-75
2022/11/28 02:35:14;;;;;;;28.60;11.60;;;;;;;5.23;100.00;101072.81;5074503;28;20025;-75
2022/11/28 02:37:45;;;;;;;24.88;10.52;;;;;;;5.27;100.00;101058.16;5044725;28;20031;-77
2022/11/28 02:40:22;;;;;;;26.88;12.18;;;;;;;5.05;100.00;101065.19;5081382;28;20047;-77
2022/11/28 02:43:03;;;;;;;21.30;11.07;;;;;;;4.96;100.00;101055.19;5062639;28;20178;-76
2022/11/28 02:45:40;;;;;;;27.80;11.35;;;;;;;5.02;100.00;101054.72;5062463;28;20024;-77
2022/11/28 02:48:12;;;;;;;26.65;12.02;;;;;;;4.99;100.00;101054.94;5064318;28;20024;-77
2022/11/28 02:50:48;;;;;;;19.83;11.18;;;;;;;5.06;100.00;101066.91;5075694;28;20025;-76
2022/11/28 02:53:20;;;;;;;27.60;11.48;;;;;;;4.98;100.00;101053.22;5043501;28;20056;-77
2022/11/28 02:55:45;;;;;;;30.30;12.75;;;;;;;5.04;100.00;101047.41;5043598;28;20021;-76
2022/11/28 02:58:11;;;;;;;19.52;11.00;;;;;;;5.17;100.00;101042.78;5043207;28;20041;-76
2022/11/28 03:00:39;;;;;;;21.88;11.00;;;;;;;5.12;100.00;101050.34;5040061;28;20120;-77
2022/11/28 03:03:29;;;;;;;20.73;11.13;;;;;;;5.23;100.00;101051.34;5022913;28;20048;-76
2022/11/28 03:06:11;;;;;;;20.08;10.50;;;;;;;5.22;100.00;101044.28;5022453;28;20034;-77
2022/11/28 03:08:42;;;;;;;;;;;;;;;5.24;100.00;101053.03;5022555;28;20102;-77
2022/11/28 03:11:18;;;;;;;22.13;10.70;;;;;;;5.20;100.00;101046.19;5040514;28;19921;-77
2022/11/28 03:14:12;;;;;;;28.00;10.88;;;;;;;5.10;100.00;101052.28;5021504;28;20496;-76
2022/11/28 03:16:44;;;;;;;23.35;9.50;;;;;;;5.24;100.00;101058.41;5039594;28;20045;-77
2022/11/28 03:19:35;;;;;;;20.33;10.32;;;;;;;5.10;100.00;101041.56;5040246;28;20032;-76
2022/11/28 03:22:08;;;;;;;19.52;10.57;;;;;;;5.23;100.00;101051.34;5039586;28;20095;-75
2022/11/28 03:24:37;;;;;;;21.05;10.38;;;;;;;5.18;100.00;101044.50;5023899;28;20025;-75
2022/11/28 03:27:13;;;;;;;23.40;10.05;;;;;;;5.23;100.00;101056.72;5021477;28;20156;-77
2022/11/28 03:29:45;;;;;;;19.63;10.30;;;;;;;5.31;100.00;101038.16;5021836;28;20030;-77
2022/11/28 03:32:17;;;;;;;20.00;9.75;;;;;;;5.26;100.00;101034.97;5022700;28;20021;-76
2022/11/28 03:34:46;;;;;;;21.17;9.85;;;;;;;5.31;100.00;101043.53;5022584;28;20025;-75
2022/11/28 03:37:19;;;;;;;20.77;10.40;;;;;;;5.28;100.00;101038.41;5022916;28;20116;-77
2022/11/28 03:39:49;;;;;;;20.08;10.38;;;;;;;5.27;100.00;101042.06;5020388;28;20029;-77
2022/11/28 03:42:27;;;;;;;21.75;10.43;;;;;;;5.37;100.00;101037.69;5019617;28;20037;-77
2022/11/28 03:44:57;;;;;;;19.27;10.55;;;;;;;5.40;100.00;101048.19;5020643;28;20071;-77
2022/11/28 03:47:27;;;;;;;19.38;10.32;;;;;;;5.29;100.00;101046.34;5018676;28;20017;-77
2022/11/28 03:49:59;;;;;;;20.17;10.10;;;;;;;5.20;100.00;101051.56;5017676;28;20021;-76
2022/11/28 03:52:30;;;;;;;26.98;10.82;;;;;;;5.33;100.00;101052.31;5034904;28;20029;-75
2022/11/28 03:55:04;;;;;;;23.43;9.43;;;;;;;5.30;100.00;101047.19;5018102;28;20089;-77
2022/11/28 03:57:36;;;;;;;21.75;11.35;;;;;;;5.26;100.00;101051.09;5017585;28;20287;-77
2022/11/28 04:00:06;;;;;;;20.55;10.45;;;;;;;5.26;100.00;101051.09;5017323;28;20025;-77
2022/11/28 04:02:40;;;;;;;24.42;10.32;;;;;;;5.21;100.00;101042.53;5061282;23;20140;-77
2022/11/28 04:05:31;;;;;;;29.40;10.73;;;;;;;5.22;100.00;101044.28;5041576;28;20031;-77
2022/11/28 04:07:58;;;;;;;25.98;10.20;;;;;;;5.27;100.00;101042.06;5022503;28;20029;-77
2022/11/28 04:10:33;;;;;;;26.90;10.70;;;;;;;5.06;100.00;101050.81;5027725;28;20024;-77
2022/11/28 04:13:11;;;;;;;20.10;10.52;;;;;;;5.08;100.00;101048.84;5024253;28;20024;-77
2022/11/28 04:16:08;;;;;;;20.90;12.02;;;;;;;5.03;100.00;101060.94;5048483;28;20039;-78
2022/11/28 04:19:01;;;;;;;27.98;11.90;;;;;;;5.12;100.00;101055.69;5027165;28;20113;-77
2022/11/28 04:21:35;;;;;;;22.75;11.32;;;;;;;5.04;100.00;101052.75;5011689;28;20119;-77
2022/11/28 04:24:09;;;;;;;19.17;10.65;;;;;;;5.15;100.00;101044.75;5034954;28;20024;-77
2022/11/28 04:26:42;;;;;;;20.83;10.90;;;;;;;5.04;100.00;101047.41;5028440;28;20028;-77
2022/11/28 04:29:13;;;;;;;17.92;10.27;;;;;;;5.21;100.00;101050.59;5028311;28;20021;-76
2022/11/28 04:31:42;;;;;;;22.67;11.07;;;;;;;5.11;100.00;101048.63;5030368;28;20027;-77
2022/11/28 04:34:10;;;;;;;20.63;10.93;;;;;;;4.92;100.00;101042.97;5017271;28;20021;-76
2022/11/28 04:36:39;;;;;;;23.27;12.75;;;;;;;4.90;100.00;101040.41;5030541;28;20018;-77
2022/11/28 04:39:11;;;;;;;27.42;11.85;;;;;;;4.99;100.00;101048.72;5013137;28;20108;-77
2022/11/28 04:41:48;;;;;;;22.42;12.18;;;;;;;4.97;100.00;101039.94;5036925;28;20113;-76
2022/11/28 04:44:28;;;;;;;17.52;10.68;;;;;;;4.76;100.00;101047.78;5013526;28;20022;-77
2022/11/28 04:46:56;;;;;;;29.35;11.45;;;;;;;4.86;100.00;101048.81;5027774;28;20059;-76
2022/11/28 04:49:22;;;;;;;24.13;11.77;;;;;;;4.84;100.00;101040.03;5035430;28;20099;-76
2022/11/28 04:51:58;;;;;;;24.13;11.88;;;;;;;4.92;100.00;101037.59;5034730;28;20172;-76
2022/11/28 04:54:37;;;;;;;17.52;10.75;;;;;;;4.92;100.00;101042.97;5035350;28;20029;-76
2022/11/28 04:57:20;;;;;;;25.25;12.10;;;;;;;4.87;100.00;101047.81;5014328;28;20035;-76
2022/11/28 04:59:47;;;;;;;22.35;11.30;;;;;;;4.93;100.00;101039.31;5014231;28;20112;-76
2022/11/28 05:02:14;;;;;;;20.48;11.63;;;;;;;5.00;100.00;101040.53;5018739;28;20087;-76
2022/11/28 05:04:42;;;;;;;20.17;10.32;;;;;;;4.89;100.00;101043.22;5028100;28;20096;-77
2022/11/28 05:07:08;;;;;;;22.58;11.32;;;;;;;4.95;100.00;101037.34;5035325;28;20088;-77
2022/11/28 05:09:34;;;;;;;18.48;11.73;;;;;;;4.89;100.00;101032.50;5028461;28;20052;-77
2022/11/28 05:11:59;;;;;;;27.10;11.80;;;;;;;5.00;100.00;101029.81;5035229;28;20083;-77
2022/11/28 05:14:25;;;;;;;24.08;11.73;;;;;;;5.08;100.00;101022.00;5042963;28;20021;-77
2022/11/28 05:16:50;;;;;;;25.02;12.52;;;;;;;4.88;100.00;101031.59;5049610;28;20021;-76
2022/11/28 05:19:16;;;;;;;30.67;11.98;;;;;;;4.93;100.00;101027.72;5020750;28;20052;-77
2022/11/28 05:21:42;;;;;;;21.30;12.50;;;;;;;4.78;100.00;101051.22;5040372;28;20024;-76
2022/11/28 05:24:08;;;;;;;25.08;12.05;;;;;;;4.69;100.00;101084.94;5029173;28;20041;-76
2022/11/28 05:26:36;;;;;;;22.08;10.93;;;;;;;4.74;100.00;101076.56;5034029;28;20025;-76
2022/11/28 05:29:03;;;;;;;22.85;11.70;;;;;;;4.82;100.00;101079.50;5022148;28;20108;-76
2022/11/28 05:31:28;;;;;;;31.45;11.88;;;;;;;4.75;100.00;101083.63;5021406;28;20032;-76
2022/11/28 05:33:55;;;;;;;23.38;12.00;;;;;;;4.77;100.00;101081.72;5021827;28;20033;-76
2022/11/28 05:36:20;;;;;;;25.08;11.85;;;;;;;4.83;100.00;101081.25;5033002;28;20029;-76
2022/11/28 05:38:46;;;;;;;35.00;13.23;;;;;;;4.69;100.00;101094.81;5022701;28;20024;-76
2022/11/28 05:41:23;;;;;;;24.92;12.38;;;;;;;4.60;100.00;101091.84;5043951;28;20024;-76
2022/11/28 05:43:49;;;;;;;20.60;12.23;;;;;;;4.67;100.00;101091.41;5038801;28;20131;-76
2022/11/28 05:46:15;;;;;;;24.23;12.88;;;;;;;4.59;100.00;101084.78;5037564;28;20075;-76
2022/11/28 05:48:40;;;;;;;26.85;12.95;;;;;;;4.58;100.00;101092.97;5024896;28;20029;-76
2022/11/28 05:51:06;;;;;;;23.02;12.40;;;;;;;4.62;100.00;101089.91;5032331;28;20019;-76
2022/11/28 05:53:32;;;;;;;23.30;12.95;;;;;;;4.57;100.00;101089.41;5040564;28;20085;-76
2022/11/28 05:55:57;;;;;;;25.70;13.27;;;;;;;4.56;100.00;101079.66;5028414;28;20049;-76
2022/11/28 05:58:23;;;;;;;22.85;12.98;;;;;;;4.57;100.00;101092.09;5029751;28;20059;-76
2022/11/28 06:00:48;;;;;;;25.58;12.48;;;;;;;4.60;100.00;101083.81;5026706;28;20045;-76
2022/11/28 06:03:14;;;;;;;25.80;13.05;;;;;;;4.69;100.00;101068.00;5047187;28;20020;-76
2022/11/28 06:05:41;;;;;;;31.90;12.30;;;;;;;4.73;100.00;101042.66;5024530;28;20082;-76
2022/11/28 06:08:09;;;;;;;32.83;12.98;;;;;;;4.84;100.00;101046.25;5024247;28;20022;-76
2022/11/28 06:10:34;;;;;;;30.38;12.68;;;;;;;4.67;100.00;101027.03;5043807;28;20027;-74
2022/11/28 06:13:01;;;;;;;25.02;12.02;;;;;;;4.77;100.00;101038.78;5027407;28;20022;-75
2022/11/28 06:15:28;;;;;;;25.33;13.25;;;;;;;4.88;100.00;101041.47;5035306;28;20016;-75
2022/11/28 06:17:53;;;;;;;27.38;13.10;;;;;;;4.78;100.00;101045.84;5019155;28;20018;-75
2022/11/28 06:20:18;;;;;;;23.77;12.60;;;;;;;4.91;100.00;101046.63;5037132;28;20028;-75
2022/11/28 06:22:46;;;;;;;27.08;12.18;;;;;;;4.88;100.00;101052.22;5044074;28;20025;-76
2022/11/28 06:25:11;;;;;;;30.98;13.10;;;;;;;4.80;100.00;101060.00;5043829;28;20108;-75
2022/11/28 06:27:36;;;;;;;26.30;12.55;;;;;;;4.89;100.00;101053.94;5033293;28;20045;-74
2022/11/28 06:30:02;;;;;;;23.88;13.32;;;;;;;4.88;100.00;101053.06;5022098;28;20113;-75
2022/11/28 06:32:27;;;;;;;25.55;12.52;;;;;;;4.98;100.00;101047.88;5029859;28;20036;-75
2022/11/28 06:34:53;;;;;;;35.40;14.10;;;;;;;5.00;100.00;101035.19;5017256;28;20021;-75
2022/11/28 06:37:18;;;;;;;25.23;13.45;;;;;;;5.12;100.00;101038.75;5018381;28;20028;-75
2022/11/28 06:39:44;;;;;;;23.33;12.07;;;;;;;5.02;100.00;101038.63;5020454;28;20025;-75
2022/11/28 06:42:09;;;;;;;24.77;12.60;;;;;;;4.92;100.00;101026.88;5040874;28;20040;-75
2022/11/28 06:44:34;;;;;;;25.25;13.13;;;;;;;4.89;100.00;101021.75;5009580;28;20024;-75
2022/11/28 06:47:00;;;;;;;22.90;12.48;;;;;;;4.94;100.00;101029.44;5034885;28;20429;-74
2022/11/28 06:49:25;;;;;;;30.05;13.52;;;;;;;4.90;100.00;101036.88;5021382;28;20024;-74
2022/11/28 06:51:50;;;;;;;29.20;13.50;;;;;;;4.85;100.00;101036.38;5015446;28;20018;-74
2022/11/28 06:54:16;;;;;;;21.23;11.85;;;;;;;4.80;100.00;101033.16;5036970;28;20020;-74
2022/11/28 06:56:41;;;;;;;23.20;11.90;;;;;;;4.90;100.00;101029.69;5034951;28;20020;-75
2022/11/28 06:59:10;;;;;;;23.95;12.73;;;;;;;4.89;100.00;101043.22;5019416;28;20055;-75
2022/11/28 07:01:35;;;;;;;26.90;12.43;;;;;;;4.89;100.00;101044.06;5019216;28;20048;-75
2022/11/28 07:04:00;;;;;;;24.42;12.85;;;;;;;4.88;100.00;101041.47;5039383;28;20104;-75
2022/11/28 07:06:26;;;;;;;30.20;13.43;;;;;;;4.99;100.00;101049.56;5031778;28;20159;-75
2022/11/28 07:08:55;;;;;;;23.13;12.23;;;;;;;4.88;100.00;101046.84;5020881;28;20021;-75
2022/11/28 07:11:23;;;;;;;24.77;12.93;;;;;;;4.90;100.00;101050.28;5022073;28;20031;-75
2022/11/28 07:13:50;;;;;;;27.00;13.13;;;;;;;4.88;100.00;101046.84;5015825;28;20024;-70
2022/11/28 07:16:21;;;;;;;25.90;13.73;;;;;;;4.89;100.00;101057.50;5017121;28;20276;-70
2022/11/28 07:18:46;;;;;;;26.00;12.15;;;;;;;4.92;100.00;101050.16;5039813;28;20099;-72
2022/11/28 07:21:13;;;;;;;26.73;13.05;;;;;;;4.87;100.00;101050.50;5024944;28;20121;-73
2022/11/28 07:23:39;;;;;;;26.67;12.45;;;;;;;4.99;100.00;101065.66;5068129;28;20016;-72
2022/11/28 07:26:06;;;;;;;24.65;12.65;;;;;;;4.95;100.00;101066.00;5020956;28;20021;-71
2022/11/28 07:28:32;;;;;;;27.35;13.48;;;;;;;5.00;100.00;101067.38;5021581;28;20490;-71
2022/11/28 07:31:06;;;;;;;24.13;12.95;;;;;;;5.05;100.00;101065.19;5023670;28;20021;-71
2022/11/28 07:33:33;;;;;;;25.67;13.23;;;;;;;5.26;100.00;101057.31;5037347;28;20016;-71
2022/11/28 07:36:01;;;;;;;28.65;14.25;;;;;;;5.12;100.00;101053.03;5046749;28;20052;-71
2022/11/28 07:38:27;;;;;;;22.83;13.32;;;;;;;5.10;100.00;101057.66;5028160;28;20020;-74
2022/11/28 07:40:52;;;;;;;27.83;13.80;;;;;;;5.04;100.00;101047.41;5047772;28;20027;-71
2022/11/28 07:43:17;;;;;;;29.83;13.90;;;;;;;5.01;100.00;101058.34;5024431;28;20074;-71
2022/11/28 07:45:43;;;;;;;26.42;14.15;;;;;;;5.00;100.00;101055.78;5060180;28;20016;-72
2022/11/28 07:48:09;;;;;;;27.17;13.55;;;;;;;5.11;100.00;101059.38;5037580;28;20104;-72
2022/11/28 07:50:36;;;;;;;29.15;14.50;;;;;;;5.15;100.00;101043.84;5014253;28;20024;-74
2022/11/28 07:53:02;;;;;;;32.42;15.18;;;;;;;5.09;100.00;101055.94;5033808;28;20033;-71
2022/11/28 07:55:28;;;;;;;32.25;13.98;;;;;;;5.28;100.00;101057.19;5041174;28;20025;-72
2022/11/28 07:57:55;;;;;;;30.85;14.18;;;;;;;5.14;100.00;101059.13;5040720;28;20112;-72
2022/11/28 08:00:22;;;;;;;25.63;14.07;;;;;;;5.23;100.00;101056.72;5031875;28;20048;-72
2022/11/28 08:02:47;;;;;;;32.08;14.65;;;;;;;5.19;100.00;101061.44;5019502;28;20105;-73
2022/11/28 08:05:13;;;;;;;35.00;15.20;;;;;;;5.15;100.00;101060.84;5045844;28;20112;-70
2022/11/28 08:07:38;;;;;;;33.78;14.93;;;;;;;5.29;100.00;101072.34;5024074;28;20019;-73
2022/11/28 08:10:07;;;;;;;30.30;16.10;;;;;;;5.06;100.00;101061.53;5034752;28;20124;-71
2022/11/28 08:12:32;;;;;;;29.42;15.20;;;;;;;5.11;100.00;101064.72;5042209;28;20033;-71
2022/11/28 08:14:58;;;;;;;30.48;16.25;;;;;;;5.23;100.00;101072.81;5034235;28;20115;-72
2022/11/28 08:17:23;;;;;;;28.67;15.73;;;;;;;5.11;100.00;101067.41;5021258;28;20110;-71
2022/11/28 08:19:49;;;;;;;36.05;16.65;;;;;;;5.20;100.00;101073.03;5024907;28;20120;-72
2022/11/28 08:22:14;;;;;;;40.03;16.33;;;;;;;5.21;100.00;101072.06;5025383;28;20102;-72
2022/11/28 08:24:39;;;;;;;34.08;16.58;;;;;;;5.11;100.00;101080.84;5036197;28;20157;-73
2022/11/28 08:27:05;;;;;;;33.17;16.25;;;;;;;5.07;100.00;101068.63;5032091;28;20074;-71
2022/11/28 08:29:30;;;;;;;34.25;15.63;;;;;;;5.15;100.00;101076.94;5019456;28;20033;-71
2022/11/28 08:31:55;;;;;;;33.83;16.83;;;;;;;5.19;100.00;101072.19;5030832;28;20127;-71
2022/11/28 08:34:21;;;;;;;31.40;15.85;;;;;;;5.21;100.00;101074.75;5056837;28;20021;-72
2022/11/28 08:36:47;;;;;;;31.45;16.48;;;;;;;5.17;100.00;101080.38;5052200;28;20115;-70
2022/11/28 08:39:13;;;;;;;34.88;16.15;;;;;;;5.21;100.00;101085.47;5026701;28;20041;-70
2022/11/28 08:41:38;;;;;;;36.15;16.05;;;;;;;5.31;99.74;101075.75;5014219;28;20083;-74
2022/11/28 08:44:04;;;;;;;36.10;16.17;;;;;;;5.26;100.00;101073.41;5025726;28;20041;-70
2022/11/28 08:46:29;;;;;;;32.92;16.83;;;;;;;5.33;99.95;101080.03;5034989;28;20087;-72
2022/11/28 08:48:54;;;;;;;29.73;16.30;;;;;;;5.18;99.65;101092.81;5034002;28;20108;-71
2022/11/28 08:51:24;;;;;;;29.05;16.25;;;;;;;5.24;100.00;101090.63;5020208;28;20119;-71
2022/11/28 08:53:51;;;;;;;32.58;16.05;;;;;;;5.34;99.60;101091.59;5024756;28;20063;-72
2022/11/28 08:56:16;;;;;;;32.35;16.83;;;;;;;5.45;99.19;101094.31;5033251;28;20021;-71
2022/11/28 08:58:42;;;;;;;34.53;16.10;;;;;;;5.43;98.89;101096.28;5034009;28;20032;-72
2022/11/28 09:01:15;;;;;;;39.65;16.95;;;;;;;5.47;98.70;101103.09;5047081;28;20037;-71
2022/11/28 09:03:40;;;;;;;28.95;15.43;;;;;;;5.58;98.57;101100.44;5016646;28;20068;-73
2022/11/28 09:06:06;;;;;;;30.08;15.25;;;;;;;5.37;98.01;101102.13;5024705;28;20041;-73
2022/11/28 09:08:31;;;;;;;29.00;15.27;;;;;;;5.47;98.51;101103.09;5048521;28;20071;-73
2022/11/28 09:10:57;;;;;;;29.95;14.93;;;;;;;5.51;97.53;101101.91;5020460;28;20039;-75
2022/11/28 09:13:22;;;;;;;40.30;15.63;;;;;;;5.59;97.64;101115.56;5041532;28;20040;-71
2022/11/28 09:15:47;;;;;;;32.80;16.65;;;;;;;5.28;97.83;101108.19;5013944;28;20055;-71
2022/11/28 09:18:13;;;;;;;37.45;15.60;;;;;;;5.35;98.38;101109.47;5044790;28;20045;-72
2022/11/28 09:20:39;;;;;;;31.40;15.88;;;;;;;5.49;97.67;101111.91;5024729;28;20036;-71
2022/11/28 09:23:08;;;;;;;32.30;15.88;;;;;;;5.36;98.17;101105.78;5028584;28;20115;-76
2022/11/28 09:25:38;;;;;;;36.88;15.07;;;;;;;5.30;97.94;101111.63;5020775;28;20037;-72
2022/11/28 09:28:05;;;;;;;33.33;14.60;;;;;;;5.49;97.61;101109.22;5041319;28;20025;-72
2022/11/28 09:30:33;;;;;;;32.17;16.60;;;;;;;5.43;97.23;101107.03;5029174;28;20053;-74
2022/11/28 09:32:59;;;;;;;30.08;16.20;;;;;;;5.34;97.33;101107.72;5020318;28;20044;-72
2022/11/28 09:35:29;;;;;;;29.27;13.75;;;;;;;5.36;97.80;101106.66;5046620;28;20025;-71
2022/11/28 09:37:58;;;;;;;35.53;15.30;;;;;;;5.42;97.43;101108.00;5047349;28;20017;-74
2022/11/28 09:40:37;;;;;;;33.53;16.98;;;;;;;5.55;97.30;101106.06;5027483;28;20031;-72
2022/11/28 09:43:27;;;;;;;30.25;15.55;;;;;;;5.55;96.18;101106.06;5030841;28;20095;-72
2022/11/28 09:45:55;;;;;;;40.35;16.70;;;;;;;5.49;97.38;101117.28;5033691;28;20077;-71
2022/11/28 09:48:49;;;;;;;29.42;15.90;;;;;;;5.48;96.86;101107.53;5028892;28;20132;-72
2022/11/28 09:51:44;;;;;;;29.85;15.05;;;;;;;5.42;96.76;101110.69;5016648;28;20049;-74
2022/11/28 09:54:09;;;;;;;30.25;14.75;;;;;;;5.48;96.80;101110.22;5044835;28;20063;-72
2022/11/28 09:56:35;;;;;;;32.30;15.15;;;;;;;5.57;96.44;101114.84;5026115;28;20029;-73
2022/11/28 09:59:03;;;;;;;25.63;14.20;;;;;;;5.53;96.69;101108.00;5016746;28;20025;-70
2022/11/28 10:01:59;;;;;;;31.05;15.70;;;;;;;5.59;95.90;101102.16;5035653;28;20083;-72
2022/11/28 10:04:41;;;;;;;27.35;14.15;;;;;;;5.60;96.33;101103.84;5043657;28;20083;-71
2022/11/28 10:07:34;;;;;;;25.33;14.05;;;;;;;5.62;95.98;101091.19;5023550;28;20098;-71
2022/11/28 10:10:07;;;;;;;33.38;15.55;;;;;;;5.56;95.91;101098.88;5014327;28;20029;-74
2022/11/28 10:12:58;;;;;;;36.10;15.00;;;;;;;5.64;95.63;101094.59;5017045;28;20116;-72
2022/11/28 10:15:43;;;;;;;30.98;15.65;;;;;;;5.51;96.23;101099.22;5028106;28;20140;-72
2022/11/28 10:18:23;;;;;;;41.45;15.75;;;;;;;5.50;96.38;101102.03;5022596;28;20053;-72
2022/11/28 10:20:53;;;;;;;28.42;15.20;;;;;;;5.65;95.43;101101.66;5041199;28;20022;-72
2022/11/28 10:23:39;;;;;;;34.45;15.27;;;;;;;5.34;96.39;101105.03;5023818;28;20051;-72
2022/11/28 10:26:16;;;;;;;28.83;14.23;;;;;;;5.47;96.17;101102.25;5019240;28;20021;-71
2022/11/28 10:28:49;;;;;;;30.35;15.10;;;;;;;5.57;95.41;101093.38;5024177;28;20029;-71
2022/11/28 10:31:19;;;;;;;29.00;14.93;;;;;;;5.39;95.53;101100.16;5033249;28;20124;-73
2022/11/28 10:33:53;;;;;;;30.02;14.48;;;;;;;5.33;95.87;101090.75;5023502;28;20029;-72
2022/11/28 10:36:58;;;;;;;28.30;14.38;;;;;;;5.33;96.08;101089.91;5031344;28;20035;-72
2022/11/28 10:39:25;;;;;;;29.30;14.23;;;;;;;5.41;95.81;101087.47;4996930;28;20048;-71
2022/11/28 10:42:16;;;;;;;34.28;14.27;;;;;;;5.48;95.13;101088.72;5016156;28;20084;-75
2022/11/28 10:45:03;;;;;;;27.13;14.52;;;;;;;5.44;95.73;101088.09;5020763;28;20071;-72
2022/11/28 10:47:47;;;;;;;31.48;13.35;;;;;;;5.52;95.60;101084.81;5012323;28;20032;-73
2022/11/28 10:50:41;;;;;;;28.95;13.35;;;;;;;5.50;95.55;101086.75;5029825;28;20043;-73
2022/11/28 10:53:27;;;;;;;29.65;13.25;;;;;;;5.53;94.92;101086.50;5021955;28;20025;-73
2022/11/28 10:56:30;;;;;;;32.22;14.50;;;;;;;5.42;95.88;101073.09;5021604;28;20125;-71
2022/11/28 10:59:17;;;;;;;27.67;13.88;;;;;;;5.48;95.94;101078.00;5021849;28;20030;-72
2022/11/28 11:01:43;;;;;;;28.95;13.02;;;;;;;5.52;96.22;101078.59;5026434;28;20079;-71
2022/11/28 11:04:20;;;;;;;31.25;14.98;;;;;;;5.70;95.62;101088.72;5023197;28;20459;-75
2022/11/28 11:06:58;;;;;;;29.27;13.88;;;;;;;5.74;95.03;101078.63;5038335;28;20025;-76
2022/11/28 11:09:23;;;;;;;31.85;14.20;;;;;;;5.81;95.38;101076.28;5026787;28;20198;-74
2022/11/28 11:11:57;;;;;;;29.67;14.85;;;;;;;5.89;95.71;101081.91;5023222;28;20060;-71
2022/11/28 11:14:34;;;;;;;38.50;15.88;;;;;;;5.69;96.21;101078.13;5019886;28;20095;-72
2022/11/28 11:17:00;;;;;;;28.77;14.20;;;;;;;5.98;95.90;101078.50;5010449;28;20029;-73
2022/11/28 11:19:30;;;;;;;32.00;15.07;;;;;;;5.94;95.36;101079.72;5046585;28;20131;-71
2022/11/28 11:22:13;;;;;;;34.80;15.73;;;;;;;5.90;95.64;101086.28;5013423;28;20033;-71
2022/11/28 11:24:39;;;;;;;31.23;15.23;;;;;;;5.63;96.48;101087.50;5016066;28;20482;-72
2022/11/28 11:27:15;;;;;;;30.30;15.10;;;;;;;5.60;96.84;101087.75;5024331;28;20029;-75
2022/11/28 11:29:40;;;;;;;34.03;15.80;;;;;;;5.59;97.89;101086.03;5034180;28;20026;-75